Time;durP1;ratioP1;P1;durP2;ratioP2;P2;SDS_P1;SDS_P2;PMS_P1;PMS_P2;Temp;Humidity;BMP_temperature;BMP_pressure;BME280_temperature;BME280_humidity;BME280_pressure;Samples;Min_cycle;Max_cycle;Signal;HPM_P1;HPM_P2
2022/01/07 00:00:47;;;;;;;16.75;5.45;;;8.20;99.90;;;;;;5055061;28;20159;-74
2022/01/07 00:03:14;;;;;;;18.52;3.45;;;8.20;99.90;;;;;;5054732;28;20496;-74
2022/01/07 00:05:40;;;;;;;11.35;3.25;;;8.20;99.90;;;;;;5054671;28;20037;-73
2022/01/07 00:08:06;;;;;;;16.75;6.10;;;8.20;99.90;;;;;;5054656;28;20025;-74
2022/01/07 00:10:32;;;;;;;11.93;3.08;;;8.20;99.90;;;;;;5054793;28;20032;-74
2022/01/07 00:12:58;;;;;;;11.95;4.13;;;8.10;99.90;;;;;;5054825;28;20048;-74
2022/01/07 00:15:24;;;;;;;10.63;3.35;;;8.10;99.90;;;;;;5055066;28;20021;-74
2022/01/07 00:17:50;;;;;;;14.00;3.42;;;8.10;99.90;;;;;;5054424;28;20489;-75
2022/01/07 00:20:17;;;;;;;14.82;5.95;;;8.10;99.90;;;;;;5054379;28;20107;-75
2022/01/07 00:22:44;;;;;;;15.43;3.65;;;8.10;99.90;;;;;;5054362;28;20049;-74
2022/01/07 00:25:12;;;;;;;11.02;3.63;;;8.10;99.90;;;;;;5054306;28;20035;-75
2022/01/07 00:27:39;;;;;;;21.48;8.48;;;8.10;99.90;;;;;;5054492;28;20393;-74
2022/01/07 00:30:07;;;;;;;8.73;2.72;;;8.10;99.90;;;;;;5052802;28;20045;-74
2022/01/07 00:32:33;;;;;;;15.43;3.60;;;8.00;99.90;;;;;;5054152;28;20062;-74
2022/01/07 00:34:59;;;;;;;9.10;2.83;;;8.10;99.90;;;;;;5054666;28;20025;-74
2022/01/07 00:37:25;;;;;;;15.68;4.50;;;8.10;99.90;;;;;;5054082;28;20032;-75
2022/01/07 00:39:50;;;;;;;20.10;5.88;;;8.10;99.90;;;;;;5054278;28;20033;-73
2022/01/07 00:42:16;;;;;;;11.57;2.85;;;8.10;99.90;;;;;;5053925;28;20481;-74
2022/01/07 00:44:42;;;;;;;21.77;10.77;;;8.10;99.90;;;;;;5054226;28;20028;-74
2022/01/07 00:47:07;;;;;;;23.35;9.57;;;8.00;99.90;;;;;;5054207;28;20388;-74
2022/01/07 00:49:33;;;;;;;16.35;5.85;;;8.10;99.90;;;;;;5054048;28;20087;-75
2022/01/07 00:52:01;;;;;;;13.80;3.58;;;8.00;99.90;;;;;;5053817;28;20029;-74
2022/01/07 00:54:27;;;;;;;11.60;2.60;;;8.00;99.90;;;;;;5053778;28;20397;-74
2022/01/07 00:56:53;;;;;;;14.32;3.47;;;8.00;99.90;;;;;;5053720;28;20096;-74
2022/01/07 00:59:19;;;;;;;15.18;4.55;;;7.90;99.90;;;;;;5053695;28;20188;-74
2022/01/07 01:01:46;;;;;;;17.33;3.58;;;7.90;99.90;;;;;;5053627;28;20025;-73
2022/01/07 01:04:13;;;;;;;16.85;3.35;;;7.90;99.90;;;;;;5053608;28;20021;-74
2022/01/07 01:06:41;;;;;;;11.35;3.75;;;7.80;99.90;;;;;;5053518;28;20104;-74
2022/01/07 01:09:10;;;;;;;12.05;4.38;;;7.80;99.90;;;;;;5053455;28;20024;-73
2022/01/07 01:11:37;;;;;;;12.70;4.35;;;7.80;99.90;;;;;;5053763;28;20025;-74
2022/01/07 01:14:03;;;;;;;11.20;3.28;;;7.80;99.90;;;;;;5053437;28;20032;-73
2022/01/07 01:16:29;;;;;;;11.02;1.92;;;7.70;99.90;;;;;;5054153;28;20025;-73
2022/01/07 01:18:55;;;;;;;13.55;2.85;;;7.80;99.90;;;;;;5053662;28;20078;-73
2022/01/07 01:21:21;;;;;;;13.73;3.42;;;7.70;99.90;;;;;;5053374;28;20031;-74
2022/01/07 01:23:47;;;;;;;15.98;3.20;;;7.70;99.90;;;;;;5053862;28;20028;-73
2022/01/07 01:26:14;;;;;;;13.77;3.03;;;7.70;99.90;;;;;;5053287;28;20017;-73
2022/01/07 01:28:40;;;;;;;11.68;3.10;;;7.70;99.90;;;;;;5053284;28;20072;-73
2022/01/07 01:31:06;;;;;;;8.68;3.67;;;7.70;99.90;;;;;;5053438;28;20025;-73
2022/01/07 01:33:32;;;;;;;12.65;2.83;;;7.60;99.90;;;;;;5053487;28;20021;-74
2022/01/07 01:35:58;;;;;;;6.90;2.88;;;7.60;99.90;;;;;;5053212;28;20029;-73
2022/01/07 01:38:23;;;;;;;15.30;3.60;;;7.60;99.90;;;;;;5053169;28;20025;-74
2022/01/07 01:40:49;;;;;;;13.02;2.78;;;7.60;99.90;;;;;;5053070;28;20032;-74
2022/01/07 01:43:15;;;;;;;11.18;3.70;;;7.50;99.90;;;;;;5051831;28;20035;-73
2022/01/07 01:45:40;;;;;;;17.77;4.25;;;7.50;99.90;;;;;;5053083;28;20086;-75
2022/01/07 01:48:06;;;;;;;12.65;4.65;;;7.50;99.90;;;;;;5053086;28;20033;-75
2022/01/07 01:50:32;;;;;;;14.07;3.03;;;7.50;99.90;;;;;;5053544;28;20025;-73
2022/01/07 01:52:57;;;;;;;16.63;3.15;;;7.50;99.90;;;;;;5053036;28;20029;-73
2022/01/07 01:55:26;;;;;;;9.27;2.25;;;7.50;99.90;;;;;;5053280;28;20146;-74
2022/01/07 01:57:52;;;;;;;10.98;2.30;;;7.50;99.90;;;;;;5052905;28;20393;-74
2022/01/07 02:00:20;;;;;;;13.35;3.17;;;7.50;99.90;;;;;;5053252;28;20091;-73
2022/01/07 02:02:46;;;;;;;11.23;2.65;;;7.50;99.90;;;;;;5052924;28;20032;-73
2022/01/07 02:05:12;;;;;;;8.27;2.42;;;7.40;99.90;;;;;;5053481;28;20147;-74
2022/01/07 02:07:39;;;;;;;7.68;2.00;;;7.50;99.90;;;;;;5053197;28;20032;-73
2022/01/07 02:10:11;;;;;;;12.13;2.78;;;7.40;99.90;;;;;;5053349;28;20485;-73
2022/01/07 02:12:37;;;;;;;14.38;2.22;;;7.40;99.90;;;;;;5053165;28;20025;-73
2022/01/07 02:15:04;;;;;;;13.65;3.78;;;7.40;99.90;;;;;;5052559;28;20017;-75
2022/01/07 02:17:29;;;;;;;13.32;3.05;;;7.40;99.90;;;;;;5052791;28;20504;-73
2022/01/07 02:19:56;;;;;;;10.90;2.75;;;7.40;99.90;;;;;;5053017;28;20025;-74
2022/01/07 02:22:23;;;;;;;12.45;2.90;;;7.40;99.90;;;;;;5052772;28;20428;-73
2022/01/07 02:24:51;;;;;;;13.40;2.85;;;7.40;99.90;;;;;;5051432;28;20029;-74
2022/01/07 02:27:17;;;;;;;11.63;2.25;;;7.30;99.90;;;;;;5052722;28;20489;-74
2022/01/07 02:29:45;;;;;;;12.52;2.55;;;7.40;99.90;;;;;;5052237;28;20092;-73
2022/01/07 02:32:11;;;;;;;11.82;2.70;;;7.30;99.90;;;;;;5052663;28;20017;-73
2022/01/07 02:34:37;;;;;;;13.40;2.58;;;7.30;99.90;;;;;;5052918;28;20025;-74
2022/01/07 02:37:03;;;;;;;10.05;2.95;;;7.30;99.90;;;;;;5052882;28;20382;-74
2022/01/07 02:39:29;;;;;;;10.98;3.03;;;7.30;99.90;;;;;;5052605;28;20047;-74
2022/01/07 02:41:55;;;;;;;12.85;2.85;;;7.40;99.90;;;;;;5052498;28;20059;-73
2022/01/07 02:44:20;;;;;;;14.20;3.42;;;7.40;99.90;;;;;;5052573;28;20028;-74
2022/01/07 02:46:46;;;;;;;14.50;3.40;;;7.40;99.90;;;;;;5052551;28;20037;-75
2022/01/07 02:49:14;;;;;;;12.68;3.35;;;7.40;99.90;;;;;;5052411;28;20025;-74
2022/01/07 02:51:42;;;;;;;12.48;2.70;;;7.40;99.90;;;;;;5052549;28;20025;-75
2022/01/07 02:54:08;;;;;;;10.35;2.38;;;7.50;99.90;;;;;;5054525;28;20017;-74
2022/01/07 02:56:35;;;;;;;12.15;3.28;;;7.50;99.90;;;;;;5056272;28;20033;-73
2022/01/07 02:59:02;;;;;;;14.98;4.15;;;7.50;99.90;;;;;;5055975;28;20150;-73
2022/01/07 03:01:28;;;;;;;13.07;2.75;;;7.50;99.90;;;;;;5055876;28;20032;-74
2022/01/07 03:03:54;;;;;;;10.15;2.20;;;7.50;99.90;;;;;;5055892;28;20025;-74
2022/01/07 03:06:21;;;;;;;13.23;2.97;;;7.60;99.90;;;;;;5056101;28;20116;-73
2022/01/07 03:08:49;;;;;;;17.35;3.10;;;7.60;99.90;;;;;;5055758;28;20393;-73
2022/01/07 03:11:14;;;;;;;14.85;3.40;;;7.70;99.90;;;;;;5055626;28;20465;-74
2022/01/07 03:13:40;;;;;;;11.43;3.05;;;7.60;99.90;;;;;;5055685;28;20021;-74
2022/01/07 03:16:06;;;;;;;12.25;3.25;;;7.70;99.90;;;;;;5055952;28;20432;-73
2022/01/07 03:18:32;;;;;;;14.45;3.67;;;7.70;99.90;;;;;;5055590;28;20028;-74
2022/01/07 03:20:59;;;;;;;13.05;2.80;;;7.60;99.90;;;;;;5056125;28;20079;-74
2022/01/07 03:23:26;;;;;;;15.25;3.28;;;7.70;99.90;;;;;;5054250;28;20017;-74
2022/01/07 03:25:53;;;;;;;11.18;2.70;;;7.70;99.90;;;;;;5055681;28;20078;-75
2022/01/07 03:28:18;;;;;;;14.45;3.30;;;7.60;99.90;;;;;;5055198;28;20041;-73
2022/01/07 03:30:44;;;;;;;10.55;2.67;;;7.60;99.90;;;;;;5055598;28;20362;-75
2022/01/07 03:33:10;;;;;;;13.18;2.47;;;7.60;99.90;;;;;;5055285;28;20017;-73
2022/01/07 03:35:36;;;;;;;10.02;2.40;;;7.60;99.90;;;;;;5055507;28;20025;-74
2022/01/07 03:38:02;;;;;;;12.05;3.03;;;7.60;99.90;;;;;;5055226;28;20096;-73
2022/01/07 03:40:29;;;;;;;14.20;2.72;;;7.50;99.90;;;;;;5055159;28;20037;-75
2022/01/07 03:42:55;;;;;;;11.15;3.40;;;7.50;99.90;;;;;;5055694;28;20489;-73
2022/01/07 03:45:22;;;;;;;8.23;2.72;;;7.60;99.90;;;;;;5055111;28;20135;-75
2022/01/07 03:47:48;;;;;;;9.43;2.38;;;7.60;99.90;;;;;;5055338;28;20071;-73
2022/01/07 03:50:17;;;;;;;9.77;2.78;;;7.50;99.90;;;;;;5055252;28;20052;-74
2022/01/07 03:52:42;;;;;;;10.95;2.55;;;7.60;99.90;;;;;;5054973;28;20021;-73
2022/01/07 03:55:12;;;;;;;17.70;2.60;;;7.50;99.90;;;;;;5054902;28;20035;-73
2022/01/07 03:57:38;;;;;;;11.13;2.75;;;7.50;99.90;;;;;;5055175;28;20101;-74
2022/01/07 04:00:11;;;;;;;8.23;2.42;;;7.40;99.90;;;;;;5054796;28;20079;-74
2022/01/07 04:02:36;;;;;;;15.95;2.17;;;7.40;99.90;;;;;;5054730;28;20025;-74
2022/01/07 04:05:03;;;;;;;13.07;2.40;;;7.40;99.90;;;;;;5053345;28;20534;-74
2022/01/07 04:07:31;;;;;;;12.20;2.53;;;7.30;99.90;;;;;;5054735;28;20021;-73
2022/01/07 04:09:59;;;;;;;9.23;2.33;;;7.30;99.90;;;;;;5054870;28;20107;-74
2022/01/07 04:12:26;;;;;;;9.05;2.40;;;7.30;99.90;;;;;;5054575;28;20099;-73
2022/01/07 04:15:03;;;;;;;12.27;2.33;;;7.30;99.90;;;;;;5054792;28;20025;-73
2022/01/07 04:17:29;;;;;;;9.40;2.08;;;7.30;99.90;;;;;;5052931;28;20025;-73
2022/01/07 04:19:54;;;;;;;8.68;2.10;;;7.20;99.90;;;;;;5054407;28;20032;-73
2022/01/07 04:22:20;;;;;;;11.15;2.53;;;7.20;99.90;;;;;;5054388;28;20048;-73
2022/01/07 04:24:45;;;;;;;8.77;2.10;;;7.10;99.90;;;;;;5054329;28;20033;-73
2022/01/07 04:27:11;;;;;;;7.90;2.00;;;7.10;99.90;;;;;;5054275;28;20024;-73
2022/01/07 04:29:37;;;;;;;15.43;2.95;;;7.10;99.90;;;;;;5053816;28;20048;-74
2022/01/07 04:32:05;;;;;;;10.07;1.98;;;7.00;99.90;;;;;;5054477;28;20027;-73
2022/01/07 04:34:30;;;;;;;9.45;2.08;;;7.00;99.90;;;;;;5054137;28;20025;-73
2022/01/07 04:36:56;;;;;;;7.60;1.88;;;6.90;99.90;;;;;;5054093;28;20013;-74
2022/01/07 04:39:22;;;;;;;9.25;2.03;;;6.90;99.90;;;;;;5054109;28;20036;-74
2022/01/07 04:41:47;;;;;;;8.85;1.67;;;6.80;99.90;;;;;;5054011;28;20028;-73
2022/01/07 04:44:13;;;;;;;9.95;1.67;;;6.80;99.90;;;;;;5053959;28;20077;-74
2022/01/07 04:46:39;;;;;;;7.40;1.60;;;6.80;99.90;;;;;;5054209;28;20047;-74
2022/01/07 04:49:04;;;;;;;5.95;1.85;;;6.80;99.90;;;;;;5054421;28;20025;-73
2022/01/07 04:51:30;;;;;;;5.80;1.92;;;6.80;99.90;;;;;;5054047;28;20025;-74
2022/01/07 04:53:56;;;;;;;11.82;2.30;;;6.80;99.90;;;;;;5054103;28;20025;-74
2022/01/07 04:56:21;;;;;;;8.20;1.70;;;6.80;99.90;;;;;;5053746;28;20017;-74
2022/01/07 04:58:47;;;;;;;11.45;1.67;;;6.70;99.90;;;;;;5053717;28;20075;-74
2022/01/07 05:01:13;;;;;;;6.85;1.55;;;6.80;99.90;;;;;;5053646;28;20017;-74
2022/01/07 05:03:38;;;;;;;5.18;1.85;;;6.80;99.90;;;;;;5053629;28;20029;-74
2022/01/07 05:06:35;;;;;;;9.30;1.77;;;6.80;99.90;;;;;;5053560;28;20027;-74
2022/01/07 05:08:52;;;;;;;9.32;1.73;;;6.70;99.90;;;;;;5053381;28;20440;-73
2022/01/07 05:11:18;;;;;;;7.13;1.38;;;6.70;99.90;;;;;;5053715;28;20135;-73
2022/01/07 05:13:44;;;;;;;6.85;1.83;;;6.70;99.90;;;;;;5053996;28;20021;-75
2022/01/07 05:16:09;;;;;;;6.15;1.63;;;6.70;99.90;;;;;;5053226;28;20035;-73
2022/01/07 05:18:35;;;;;;;5.50;1.88;;;6.70;99.90;;;;;;5053697;28;20484;-74
2022/01/07 05:21:00;;;;;;;6.85;2.45;;;6.70;99.90;;;;;;5053663;28;20028;-74
2022/01/07 05:23:26;;;;;;;8.55;2.15;;;6.60;99.90;;;;;;5053651;28;20163;-74
2022/01/07 05:25:52;;;;;;;6.32;1.80;;;6.60;99.90;;;;;;5053595;28;20045;-74
2022/01/07 05:28:17;;;;;;;5.15;1.77;;;6.60;99.90;;;;;;5052992;28;20037;-73
2022/01/07 05:30:43;;;;;;;10.45;1.80;;;6.70;99.90;;;;;;5053493;28;20508;-73
2022/01/07 05:33:08;;;;;;;7.45;1.60;;;6.60;99.90;;;;;;5053247;28;20403;-74
2022/01/07 05:35:34;;;;;;;10.40;2.38;;;6.60;99.90;;;;;;5053222;28;20039;-73
2022/01/07 05:38:00;;;;;;;7.93;1.42;;;6.60;99.90;;;;;;5053191;28;20032;-75
2022/01/07 05:40:25;;;;;;;9.27;1.88;;;6.60;99.90;;;;;;5053597;28;20029;-73
2022/01/07 05:42:51;;;;;;;9.85;1.85;;;6.60;99.90;;;;;;5053431;28;20067;-74
2022/01/07 05:45:17;;;;;;;9.10;2.15;;;6.60;99.90;;;;;;5053107;28;20028;-74
2022/01/07 05:47:42;;;;;;;7.88;2.05;;;6.60;99.90;;;;;;5053093;28;20033;-74
2022/01/07 05:50:10;;;;;;;7.53;1.83;;;6.60;99.90;;;;;;5052990;28;20028;-75
2022/01/07 05:52:36;;;;;;;8.57;2.35;;;6.50;99.90;;;;;;5053077;28;20017;-73
2022/01/07 05:55:03;;;;;;;8.98;1.73;;;6.50;99.90;;;;;;5053048;28;20025;-74
2022/01/07 05:57:28;;;;;;;6.32;1.60;;;6.50;99.90;;;;;;5053011;28;20025;-74
2022/01/07 05:59:54;;;;;;;9.38;1.80;;;6.60;99.90;;;;;;5052955;28;20021;-74
2022/01/07 06:02:20;;;;;;;9.88;2.20;;;6.60;99.90;;;;;;5053208;28;20033;-74
2022/01/07 06:04:45;;;;;;;10.00;1.90;;;6.60;99.90;;;;;;5052949;28;20432;-73
2022/01/07 06:07:11;;;;;;;12.10;2.25;;;6.50;99.90;;;;;;5052912;28;20435;-74
2022/01/07 06:09:36;;;;;;;11.60;3.15;;;6.50;99.90;;;;;;5052809;28;20025;-73
2022/01/07 06:12:02;;;;;;;15.07;2.85;;;6.50;99.90;;;;;;5052818;28;20029;-74
2022/01/07 06:14:28;;;;;;;9.48;2.15;;;6.50;99.90;;;;;;5053384;28;20018;-75
2022/01/07 06:16:54;;;;;;;11.13;2.20;;;6.50;99.90;;;;;;5052774;28;20025;-74
2022/01/07 06:19:20;;;;;;;12.38;2.70;;;6.50;99.90;;;;;;5053292;28;20031;-74
2022/01/07 06:21:46;;;;;;;8.95;2.05;;;6.50;99.90;;;;;;5052782;28;20047;-74
2022/01/07 06:24:12;;;;;;;7.65;1.90;;;6.50;99.90;;;;;;5052750;28;20552;-73
2022/01/07 06:26:38;;;;;;;12.52;2.97;;;6.50;99.90;;;;;;5052679;28;20061;-74
2022/01/07 06:29:04;;;;;;;11.95;2.22;;;6.50;99.90;;;;;;5054566;28;20072;-73
2022/01/07 06:31:30;;;;;;;8.70;1.75;;;6.50;99.90;;;;;;5056453;28;20072;-74
2022/01/07 06:33:58;;;;;;;12.20;2.20;;;6.60;99.90;;;;;;5056509;28;20028;-73
2022/01/07 06:36:24;;;;;;;9.85;2.05;;;6.60;99.90;;;;;;5056402;28;20017;-74
2022/01/07 06:38:50;;;;;;;11.98;3.00;;;6.60;99.90;;;;;;5055145;28;20520;-74
2022/01/07 06:41:15;;;;;;;10.70;2.17;;;6.70;99.90;;;;;;5056401;28;20029;-73
2022/01/07 06:43:43;;;;;;;12.27;2.17;;;6.60;99.90;;;;;;5056224;28;20382;-74
2022/01/07 06:46:11;;;;;;;10.25;1.90;;;6.60;99.90;;;;;;5056220;28;20123;-73
2022/01/07 06:48:37;;;;;;;10.55;2.35;;;6.60;99.90;;;;;;5056202;28;20032;-74
2022/01/07 06:51:03;;;;;;;14.60;2.72;;;6.60;99.90;;;;;;5056063;28;20029;-73
2022/01/07 06:53:30;;;;;;;7.60;2.25;;;6.60;99.90;;;;;;5056086;28;20044;-73
2022/01/07 06:56:00;;;;;;;14.38;3.03;;;6.60;99.90;;;;;;5056040;28;20021;-74
2022/01/07 06:58:27;;;;;;;11.18;2.35;;;6.60;99.90;;;;;;5056039;28;20442;-73
2022/01/07 07:00:53;;;;;;;10.52;2.15;;;6.60;99.90;;;;;;5055933;28;20036;-74
2022/01/07 07:03:19;;;;;;;11.82;2.28;;;6.60;99.90;;;;;;5056205;28;20047;-75
2022/01/07 07:05:44;;;;;;;13.57;2.60;;;6.60;99.90;;;;;;5055872;28;20497;-74
2022/01/07 07:08:10;;;;;;;14.90;2.92;;;6.60;99.90;;;;;;5056112;28;20029;-74
2022/01/07 07:10:36;;;;;;;6.05;1.70;;;6.60;99.90;;;;;;5055744;28;20032;-73
2022/01/07 07:13:01;;;;;;;12.88;2.13;;;6.60;99.90;;;;;;5055725;28;20021;-73
2022/01/07 07:15:27;;;;;;;8.68;2.65;;;6.60;99.90;;;;;;5055692;28;20362;-73
2022/01/07 07:17:53;;;;;;;10.38;2.65;;;6.60;99.90;;;;;;5055606;28;20478;-74
2022/01/07 07:20:19;;;;;;;5.38;2.03;;;6.60;99.90;;;;;;5055606;28;20025;-73
2022/01/07 07:22:44;;;;;;;11.20;2.78;;;6.60;99.90;;;;;;5055870;28;20032;-74
2022/01/07 07:25:10;;;;;;;6.75;2.42;;;6.60;99.90;;;;;;5056097;28;20033;-73
2022/01/07 07:27:36;;;;;;;11.85;2.38;;;6.60;99.90;;;;;;5056019;28;20032;-75
2022/01/07 07:30:08;;;;;;;7.30;2.00;;;6.60;99.90;;;;;;5054957;28;20049;-75
2022/01/07 07:32:35;;;;;;;8.35;1.85;;;6.60;99.90;;;;;;5055318;28;20104;-74
2022/01/07 07:35:12;;;;;;;10.40;2.58;;;6.60;99.90;;;;;;5055586;28;20024;-74
2022/01/07 07:37:38;;;;;;;8.10;2.05;;;6.60;99.90;;;;;;5053763;28;20485;-73
2022/01/07 07:40:04;;;;;;;8.02;2.38;;;6.60;99.90;;;;;;5054781;28;20032;-73
2022/01/07 07:42:30;;;;;;;7.50;2.08;;;6.60;99.90;;;;;;5055121;28;20075;-74
2022/01/07 07:44:56;;;;;;;11.13;2.85;;;6.60;99.90;;;;;;5055147;28;20469;-74
2022/01/07 07:47:21;;;;;;;11.93;3.75;;;6.60;99.90;;;;;;5055089;28;20055;-73
2022/01/07 07:49:47;;;;;;;10.70;3.95;;;6.50;99.90;;;;;;5054988;28;20060;-72
2022/01/07 07:52:13;;;;;;;8.95;2.55;;;6.50;99.90;;;;;;5054950;28;20017;-73
2022/01/07 07:54:38;;;;;;;7.93;2.10;;;6.50;99.90;;;;;;5055490;28;20029;-73
2022/01/07 07:57:04;;;;;;;8.25;2.90;;;6.40;99.90;;;;;;5055125;28;20457;-74
2022/01/07 07:59:30;;;;;;;7.50;2.75;;;6.40;99.90;;;;;;5055368;28;20025;-74
2022/01/07 08:01:56;;;;;;;8.18;2.50;;;6.40;99.90;;;;;;5055098;28;20124;-74
2022/01/07 08:04:22;;;;;;;7.93;2.70;;;6.40;99.90;;;;;;5055083;28;20049;-73
2022/01/07 08:06:48;;;;;;;8.98;2.78;;;6.30;99.90;;;;;;5054684;28;20175;-73
2022/01/07 08:09:14;;;;;;;13.68;2.58;;;6.30;99.90;;;;;;5055216;28;20044;-72
2022/01/07 08:11:57;;;;;;;12.38;4.32;;;6.40;99.90;;;;;;5054799;28;20029;-73
2022/01/07 08:17:08;;;;;;;7.88;2.88;;;6.30;99.90;;;;;;5054872;28;20516;-73
2022/01/07 08:19:34;;;;;;;4.95;1.73;;;6.30;99.90;;;;;;5054506;28;20443;-74
2022/01/07 08:22:00;;;;;;;12.73;5.63;;;6.30;99.90;;;;;;5054400;28;20397;-74
2022/01/07 08:24:26;;;;;;;6.65;2.45;;;6.30;99.90;;;;;;5054347;28;20021;-74
2022/01/07 08:26:53;;;;;;;5.75;2.67;;;6.30;99.90;;;;;;5054113;28;20017;-73
2022/01/07 08:29:20;;;;;;;9.02;2.78;;;6.30;99.90;;;;;;5053991;28;20052;-73
2022/01/07 08:36:56;;;;;;;6.18;2.10;;;6.30;99.90;;;;;;5053908;28;20551;-73
2022/01/07 08:39:22;;;;;;;5.38;1.52;;;6.30;99.90;;;;;;5054091;28;20031;-73
2022/01/07 08:41:48;;;;;;;7.82;2.40;;;6.30;99.90;;;;;;5053944;28;20020;-75
2022/01/07 08:44:13;;;;;;;6.00;1.90;;;6.30;99.90;;;;;;5054342;28;20029;-74
2022/01/07 08:46:39;;;;;;;3.50;0.98;;;6.30;99.90;;;;;;5054230;28;20021;-73
2022/01/07 08:49:05;;;;;;;6.22;1.60;;;6.30;99.90;;;;;;5054192;28;20056;-74
2022/01/07 08:51:32;;;;;;;8.75;3.53;;;6.30;99.90;;;;;;5053002;28;20082;-73
2022/01/07 08:53:57;;;;;;;10.13;5.60;;;6.30;99.90;;;;;;5053817;28;20028;-73
2022/01/07 08:56:24;;;;;;;12.52;6.32;;;6.40;99.90;;;;;;5054032;28;20025;-74
2022/01/07 08:58:51;;;;;;;5.80;2.55;;;6.40;99.90;;;;;;5053652;28;20025;-73
2022/01/07 09:01:18;;;;;;;5.97;2.67;;;6.40;99.90;;;;;;5053702;28;20032;-73
2022/01/07 09:03:43;;;;;;;6.95;2.72;;;6.50;99.90;;;;;;5053652;28;20128;-74
2022/01/07 09:06:09;;;;;;;9.10;2.97;;;6.50;99.90;;;;;;5053655;28;20520;-74
2022/01/07 09:08:35;;;;;;;5.57;2.33;;;6.60;99.90;;;;;;5053847;28;20025;-74
2022/01/07 09:11:00;;;;;;;8.77;2.47;;;6.50;99.90;;;;;;5053946;28;20154;-74
2022/01/07 09:13:26;;;;;;;5.97;2.35;;;6.60;99.90;;;;;;5053788;28;20028;-73
2022/01/07 09:15:52;;;;;;;8.73;3.17;;;6.60;99.90;;;;;;5053513;28;20028;-73
2022/01/07 09:18:20;;;;;;;10.00;2.55;;;6.70;99.90;;;;;;5053451;28;20025;-74
2022/01/07 09:20:47;;;;;;;4.35;2.45;;;6.70;99.90;;;;;;5053683;28;20017;-75
2022/01/07 09:23:14;;;;;;;6.25;2.38;;;6.80;99.90;;;;;;5053932;28;20370;-74
2022/01/07 09:25:40;;;;;;;4.93;2.45;;;6.70;99.90;;;;;;5053352;28;20398;-74
2022/01/07 09:28:07;;;;;;;4.63;1.77;;;6.80;99.90;;;;;;5053101;28;20374;-74
2022/01/07 09:30:35;;;;;;;5.13;2.30;;;6.80;99.90;;;;;;5053494;28;20028;-74
2022/01/07 09:33:00;;;;;;;9.75;2.92;;;6.80;99.90;;;;;;5053784;28;20527;-73
2022/01/07 09:35:27;;;;;;;7.35;2.30;;;6.90;99.90;;;;;;5053241;28;20029;-75
2022/01/07 09:37:53;;;;;;;8.65;2.28;;;7.10;99.90;;;;;;5053480;28;20025;-74
2022/01/07 09:40:19;;;;;;;8.20;3.10;;;7.30;99.90;;;;;;5053118;28;20421;-75
2022/01/07 09:42:55;;;;;;;6.88;3.22;;;7.60;99.90;;;;;;5053125;28;20059;-74
2022/01/07 09:45:23;;;;;;;7.00;2.60;;;7.90;99.90;;;;;;5053366;28;20021;-75
2022/01/07 09:47:49;;;;;;;12.38;2.40;;;8.10;99.90;;;;;;5053116;28;20028;-73
2022/01/07 09:50:15;;;;;;;9.68;2.03;;;8.20;99.90;;;;;;5053284;28;20025;-74
2022/01/07 09:52:41;;;;;;;9.30;1.90;;;8.30;99.90;;;;;;5053553;28;20373;-75
2022/01/07 09:55:07;;;;;;;7.03;1.83;;;8.30;99.90;;;;;;5053293;28;20477;-75
2022/01/07 09:57:33;;;;;;;5.55;1.88;;;8.30;99.90;;;;;;5052305;28;20020;-73
2022/01/07 09:59:59;;;;;;;11.00;3.08;;;8.30;99.90;;;;;;5053497;28;20020;-74
2022/01/07 10:02:25;;;;;;;14.05;3.03;;;8.20;99.90;;;;;;5054088;28;20382;-74
2022/01/07 10:04:51;;;;;;;13.80;3.42;;;8.10;99.90;;;;;;5057002;28;20031;-75
2022/01/07 10:07:24;;;;;;;11.25;4.13;;;8.10;99.90;;;;;;5056983;28;20048;-75
2022/01/07 10:10:09;;;;;;;10.43;3.85;;;8.20;99.90;;;;;;5056878;28;20025;-74
2022/01/07 10:12:53;;;;;;;13.85;3.92;;;8.20;99.90;;;;;;5057210;28;20053;-74
2022/01/07 10:15:24;;;;;;;10.43;2.90;;;8.30;99.90;;;;;;5057126;28;20021;-74
2022/01/07 10:18:03;;;;;;;9.68;3.15;;;8.30;99.90;;;;;;5057377;28;20126;-74
2022/01/07 10:20:38;;;;;;;11.00;3.03;;;8.30;99.90;;;;;;5057071;28;20079;-75
2022/01/07 10:23:05;;;;;;;16.23;4.13;;;8.30;99.90;;;;;;5056687;28;20021;-75
2022/01/07 10:25:34;;;;;;;17.83;2.70;;;8.30;99.90;;;;;;5056665;28;20504;-73
2022/01/07 10:28:12;;;;;;;12.65;4.03;;;8.40;99.90;;;;;;5056412;28;20033;-74
2022/01/07 10:30:37;;;;;;;12.77;4.68;;;8.40;99.90;;;;;;5056454;28;20029;-75
2022/01/07 10:33:16;;;;;;;11.00;3.97;;;8.50;99.90;;;;;;5056519;28;20025;-73
2022/01/07 10:35:42;;;;;;;12.93;3.53;;;8.60;99.90;;;;;;5056529;28;20021;-73
2022/01/07 10:38:08;;;;;;;8.73;2.65;;;8.60;99.90;;;;;;5056403;28;20028;-73
2022/01/07 10:40:37;;;;;;;6.13;2.28;;;8.60;99.90;;;;;;5056316;28;20052;-73
2022/01/07 10:43:17;;;;;;;11.30;2.55;;;8.60;99.90;;;;;;5056311;28;20033;-74
2022/01/07 10:45:48;;;;;;;11.55;2.22;;;8.60;99.90;;;;;;5056837;28;20029;-75
2022/01/07 10:48:15;;;;;;;13.10;2.95;;;8.60;99.90;;;;;;5056578;28;20025;-73
2022/01/07 10:50:49;;;;;;;11.82;2.60;;;8.60;99.90;;;;;;5056099;28;20025;-74
2022/01/07 10:53:18;;;;;;;12.27;2.75;;;8.60;99.90;;;;;;5056487;28;20021;-74
2022/01/07 10:56:03;;;;;;;17.17;2.88;;;8.70;99.90;;;;;;5056106;28;20028;-73
2022/01/07 10:58:39;;;;;;;15.70;2.90;;;8.70;99.90;;;;;;5056382;28;20027;-73
2022/01/07 11:01:05;;;;;;;8.73;2.53;;;8.80;99.90;;;;;;5056020;28;20478;-73
2022/01/07 11:03:33;;;;;;;13.23;2.83;;;8.80;99.90;;;;;;5056203;28;20032;-75
2022/01/07 11:06:01;;;;;;;16.92;4.78;;;8.80;99.90;;;;;;5055917;28;20029;-73
2022/01/07 11:08:27;;;;;;;13.70;3.15;;;8.80;99.90;;;;;;5054645;28;20025;-74
2022/01/07 11:10:53;;;;;;;11.30;3.03;;;8.80;99.90;;;;;;5055773;28;20366;-73
2022/01/07 11:13:19;;;;;;;13.50;3.70;;;8.80;99.90;;;;;;5055832;28;20138;-74
2022/01/07 11:15:44;;;;;;;15.95;5.50;;;8.90;99.90;;;;;;5055393;28;20063;-74
2022/01/07 11:18:10;;;;;;;15.52;3.55;;;8.90;99.90;;;;;;5055670;28;20448;-74
2022/01/07 11:20:36;;;;;;;15.82;3.65;;;8.80;99.90;;;;;;5055654;28;20151;-74
2022/01/07 11:23:02;;;;;;;10.65;2.40;;;8.80;99.90;;;;;;5055607;28;20155;-74
2022/01/07 11:25:32;;;;;;;10.23;3.75;;;8.80;99.90;;;;;;5055817;28;20033;-74
2022/01/07 11:27:59;;;;;;;14.85;3.30;;;8.80;99.90;;;;;;5055301;28;20017;-75
2022/01/07 11:30:32;;;;;;;15.98;3.58;;;8.80;99.90;;;;;;5055683;28;20064;-75
2022/01/07 11:32:58;;;;;;;10.07;3.05;;;8.80;99.90;;;;;;5055721;28;20017;-75
2022/01/07 11:35:24;;;;;;;12.10;2.40;;;8.80;99.90;;;;;;5055348;28;20017;-75
2022/01/07 11:37:54;;;;;;;11.63;3.28;;;8.80;99.90;;;;;;5055598;28;20028;-75
2022/01/07 11:40:29;;;;;;;;;;;8.90;99.90;;;;;;5055599;28;20040;-75
2022/01/07 11:42:56;;;;;;;13.90;3.38;;;8.80;99.90;;;;;;5055447;28;20003;-73
2022/01/07 11:45:35;;;;;;;15.23;5.00;;;8.90;99.90;;;;;;5055170;28;20029;-74
2022/01/07 11:48:14;;;;;;;14.60;3.15;;;8.90;99.90;;;;;;5055407;28;20044;-73
2022/01/07 11:51:00;;;;;;;26.15;8.73;;;8.90;99.90;;;;;;5055589;28;20121;-74
2022/01/07 11:53:39;;;;;;;13.90;5.32;;;8.90;99.90;;;;;;5054759;28;20374;-75
2022/01/07 11:56:06;;;;;;;20.67;6.47;;;9.00;99.90;;;;;;5055002;28;20058;-74
2022/01/07 11:58:45;;;;;;;7.20;2.28;;;9.00;99.90;;;;;;5054867;28;20505;-74
2022/01/07 12:01:39;;;;;;;17.75;3.97;;;9.00;99.90;;;;;;5054825;28;20428;-75
2022/01/07 12:04:14;;;;;;;12.90;4.82;;;9.10;99.90;;;;;;5053321;28;20036;-75
2022/01/07 12:06:40;;;;;;;15.52;3.67;;;9.10;99.90;;;;;;5054751;28;20052;-75
2022/01/07 12:09:06;;;;;;;12.70;3.22;;;9.10;99.90;;;;;;5054727;28;20501;-74
2022/01/07 12:11:51;;;;;;;15.95;4.35;;;9.20;99.90;;;;;;5054598;28;20473;-74
2022/01/07 12:14:20;;;;;;;10.88;3.08;;;9.10;99.90;;;;;;5054665;28;20496;-73
2022/01/07 12:16:49;;;;;;;18.63;4.47;;;9.20;99.90;;;;;;5054551;28;20033;-74
2022/01/07 12:19:23;;;;;;;20.60;4.38;;;9.20;99.90;;;;;;5054526;28;20021;-73
2022/01/07 12:21:51;;;;;;;15.25;4.45;;;9.30;99.90;;;;;;5054748;28;20025;-74
2022/01/07 12:24:28;;;;;;;14.93;4.22;;;9.40;99.90;;;;;;5054681;28;20115;-75
2022/01/07 12:27:13;;;;;;;12.80;3.33;;;9.50;99.90;;;;;;5054978;28;20032;-75
2022/01/07 12:29:44;;;;;;;20.75;4.30;;;9.60;99.90;;;;;;5054203;28;20110;-74
2022/01/07 12:32:11;;;;;;;14.88;4.90;;;9.60;99.90;;;;;;5054849;28;20017;-74
2022/01/07 12:34:40;;;;;;;13.52;3.38;;;9.60;99.90;;;;;;5052970;28;20516;-75
2022/01/07 12:37:09;;;;;;;11.15;3.13;;;9.70;99.90;;;;;;5054158;28;20075;-75
2022/01/07 12:39:37;;;;;;;14.68;3.53;;;9.70;99.90;;;;;;5054415;28;20021;-75
2022/01/07 12:42:05;;;;;;;12.23;3.17;;;9.70;99.90;;;;;;5053990;28;20469;-74
2022/01/07 12:44:43;;;;;;;20.73;3.35;;;9.70;99.90;;;;;;5053988;28;20079;-75
2022/01/07 12:47:12;;;;;;;17.15;3.13;;;9.70;99.90;;;;;;5054246;28;20021;-75
2022/01/07 12:49:43;;;;;;;11.63;3.75;;;9.70;99.90;;;;;;5054148;28;20025;-75
2022/01/07 12:52:16;;;;;;;12.88;3.42;;;9.80;99.90;;;;;;5053858;28;20096;-74
2022/01/07 12:54:54;;;;;;;13.38;3.00;;;9.90;99.90;;;;;;5054167;28;20025;-75
2022/01/07 12:57:24;;;;;;;16.33;3.75;;;10.00;99.90;;;;;;5054096;28;20096;-75
2022/01/07 13:00:22;;;;;;;13.40;2.80;;;9.90;99.90;;;;;;5054379;28;20029;-74